createdAt,value
2022-11-17T00:00:44.081Z,98149.56
2022-11-17T00:03:16.201Z,98154.39
2022-11-17T00:05:44.960Z,98151.29
2022-11-17T00:08:13.414Z,98151.80
2022-11-17T00:10:41.589Z,98149.56
2022-11-17T00:13:29.838Z,98143.86
2022-11-17T00:15:58.006Z,98148.70
2022-11-17T00:18:44.624Z,98152.34
2022-11-17T00:21:19.381Z,98155.27
2022-11-17T00:23:48.463Z,98151.64
2022-11-17T00:26:19.271Z,98151.80
2022-11-17T00:28:48.090Z,98155.44
2022-11-17T00:31:34.971Z,98153.19
2022-11-17T00:34:05.916Z,98151.29
2022-11-17T00:36:45.860Z,98151.48
2022-11-17T00:39:15.571Z,98149.56
2022-11-17T00:41:44.335Z,98144.92
2022-11-17T00:44:13.284Z,98146.80
2022-11-17T00:46:42.141Z,98149.73
2022-11-17T00:49:11.703Z,98151.29
2022-11-17T00:51:39.816Z,98153.36
2022-11-17T00:54:11.371Z,98162.35
2022-11-17T00:56:40.113Z,98160.27
2022-11-17T00:59:08.258Z,98166.30
2022-11-17T01:01:37.355Z,98164.23
2022-11-17T01:04:06.935Z,98164.06
2022-11-17T01:06:39.509Z,98161.13
2022-11-17T01:09:15.642Z,98158.89
2022-11-17T01:11:44.823Z,98159.74
2022-11-17T01:14:22.461Z,98162.52
2022-11-17T01:16:51.299Z,98160.60
2022-11-17T01:19:19.935Z,98158.38
2022-11-17T01:21:48.519Z,98163.20
2022-11-17T01:24:17.512Z,98160.61
2022-11-17T01:26:46.645Z,98158.02
2022-11-17T01:29:17.412Z,98155.77
2022-11-17T01:31:49.713Z,98153.37
2022-11-17T01:34:18.432Z,98153.02
2022-11-17T01:37:05.413Z,98147.67
2022-11-17T01:39:33.690Z,98141.80
2022-11-17T01:42:13.229Z,98145.08
2022-11-17T01:44:50.414Z,98146.80
2022-11-17T01:47:43.372Z,98146.46
2022-11-17T01:50:17.072Z,98145.77
2022-11-17T01:52:46.886Z,98146.98
2022-11-17T01:55:15.361Z,98146.11
2022-11-17T01:58:02.474Z,98158.20
2022-11-17T02:00:30.853Z,98157.34
2022-11-17T02:02:59.365Z,98155.45
2022-11-17T02:05:53.108Z,98151.12
2022-11-17T02:08:24.560Z,98149.05
2022-11-17T02:10:53.941Z,98146.11
2022-11-17T02:13:22.632Z,98147.50
2022-11-17T02:15:50.922Z,98146.27
2022-11-17T02:18:19.711Z,98150.09
2022-11-17T02:21:19.223Z,98143.18
2022-11-17T02:24:02.315Z,98145.26
2022-11-17T02:26:41.065Z,98150.43
2022-11-17T02:29:18.147Z,98155.27
2022-11-17T02:32:07.517Z,98158.71
2022-11-17T02:34:50.643Z,98158.36
2022-11-17T02:37:26.394Z,98153.19
2022-11-17T02:40:02.767Z,98140.76
2022-11-17T02:42:55.404Z,98131.27
2022-11-17T02:45:40.272Z,98125.41
2022-11-17T02:48:17.046Z,98124.73
2022-11-17T02:50:49.110Z,98131.80
2022-11-17T02:53:19.054Z,98132.31
2022-11-17T02:55:52.319Z,98130.59
2022-11-17T02:58:21.612Z,98124.73
2022-11-17T03:01:11.340Z,98130.77
2022-11-17T03:03:51.656Z,98138.36
2022-11-17T03:06:24.948Z,98147.34
2022-11-17T03:09:00.290Z,98150.09
2022-11-17T03:11:44.949Z,98149.92
2022-11-17T03:14:39.645Z,98145.09
2022-11-17T03:17:17.454Z,98142.15
2022-11-17T03:19:53.301Z,98149.23
2022-11-17T03:22:44.204Z,98155.61
2022-11-17T03:25:17.889Z,98159.92
2022-11-17T03:27:51.203Z,98160.78
2022-11-17T03:30:22.550Z,98163.37
2022-11-17T03:32:56.149Z,98160.09
2022-11-17T03:35:32.414Z,98154.58
2022-11-17T03:38:07.966Z,98152.17
2022-11-17T03:40:39.820Z,98151.64
2022-11-17T03:43:09.530Z,98148.19
2022-11-17T03:45:45.280Z,98141.98
2022-11-17T03:48:20.928Z,98144.73
2022-11-17T03:50:55.144Z,98138.88
2022-11-17T03:53:24.349Z,98130.42
2022-11-17T03:56:08.389Z,98132.32
2022-11-17T03:58:46.290Z,98140.25
2022-11-17T04:01:15.342Z,98143.70
2022-11-17T04:03:43.455Z,98149.57
2022-11-17T04:06:11.631Z,98151.46
2022-11-17T04:08:39.702Z,98153.55
2022-11-17T04:11:26.205Z,98155.95
2022-11-17T04:14:13.116Z,98148.70
2022-11-17T04:16:41.189Z,98156.98
2022-11-17T04:19:09.361Z,98162.85
2022-11-17T04:21:37.444Z,98159.23
2022-11-17T04:24:06.230Z,98156.83
2022-11-17T04:26:52.725Z,98147.16
2022-11-17T04:29:20.796Z,98144.23
2022-11-17T04:31:48.970Z,98140.59
2022-11-17T04:34:17.041Z,98142.65
2022-11-17T04:36:45.317Z,98141.28
2022-11-17T04:39:15.130Z,98141.27
2022-11-17T04:42:02.249Z,98149.39
2022-11-17T04:44:32.369Z,98153.35
2022-11-17T04:47:03.320Z,98160.42
2022-11-17T04:49:32.811Z,98164.21
2022-11-17T04:52:01.393Z,98168.52
2022-11-17T04:54:29.669Z,98166.62
2022-11-17T04:56:57.972Z,98172.13
2022-11-17T04:59:26.326Z,98174.39
2022-11-17T05:01:54.451Z,98176.80
2022-11-17T05:04:41.105Z,98170.92
2022-11-17T05:07:09.572Z,98174.02
2022-11-17T05:09:37.861Z,98176.27
2022-11-17T05:12:25.796Z,98176.95
2022-11-17T05:14:53.868Z,98170.92
2022-11-17T05:17:21.940Z,98170.90
2022-11-17T05:19:50.119Z,98172.80
2022-11-17T05:22:40.431Z,98174.36
2022-11-17T05:25:09.612Z,98178.31
2022-11-17T05:27:38.187Z,98183.83
2022-11-17T05:30:08.567Z,98182.79
2022-11-17T05:32:36.893Z,98180.55
2022-11-17T05:35:05.781Z,98182.08
2022-11-17T05:37:33.849Z,98194.48
2022-11-17T05:40:01.925Z,98197.94
2022-11-17T05:42:30.096Z,98203.79
2022-11-17T05:44:58.167Z,98205.85
2022-11-17T05:47:26.344Z,98204.45
2022-11-17T05:49:54.412Z,98204.29
2022-11-17T05:52:22.484Z,98205.84
2022-11-17T05:54:50.682Z,98215.30
2022-11-17T05:57:27.709Z,98219.26
2022-11-17T06:00:01.853Z,98222.35
2022-11-17T06:02:35.146Z,98222.89
2022-11-17T06:05:03.834Z,98220.13
2022-11-17T06:07:32.589Z,98215.80
2022-11-17T06:10:00.898Z,98219.77
2022-11-17T06:12:28.966Z,98218.38
2022-11-17T06:14:57.039Z,98223.88
2022-11-17T06:17:31.664Z,98223.69
2022-11-17T06:20:16.018Z,98228.68
2022-11-17T06:22:48.287Z,98234.21
2022-11-17T06:25:19.742Z,98240.58
2022-11-17T06:27:50.261Z,98239.89
2022-11-17T06:30:19.151Z,98234.20
2022-11-17T06:32:50.198Z,98230.73
2022-11-17T06:35:18.371Z,98234.48
2022-11-17T06:37:46.445Z,98236.21
2022-11-17T06:40:15.260Z,98233.80
2022-11-17T06:43:02.244Z,98237.41
2022-11-17T06:45:41.170Z,98235.36
2022-11-17T06:48:10.881Z,98232.79
2022-11-17T06:50:39.159Z,98233.48
2022-11-17T06:53:09.787Z,98232.63
2022-11-17T06:55:38.226Z,98232.27
2022-11-17T06:58:09.176Z,98236.92
2022-11-17T07:00:38.054Z,98240.88
2022-11-17T07:03:09.376Z,98244.49
2022-11-17T07:05:40.241Z,98245.21
2022-11-17T07:08:09.426Z,98245.57
2022-11-17T07:10:38.135Z,98251.77
2022-11-17T07:13:06.237Z,98254.18
2022-11-17T07:15:34.313Z,98254.88
2022-11-17T07:18:02.380Z,98253.86
2022-11-17T07:20:30.451Z,98254.73
2022-11-17T07:23:00.372Z,98257.48
2022-11-17T07:25:28.435Z,98256.98
2022-11-17T07:28:00.481Z,98257.86
2022-11-17T07:30:28.984Z,98260.77
2022-11-17T07:33:00.210Z,98260.61
2022-11-17T07:35:28.710Z,98265.08
2022-11-17T07:37:58.726Z,98266.98
2022-11-17T07:40:27.106Z,98267.81
2022-11-17T07:42:55.868Z,98265.73
2022-11-17T07:45:28.662Z,98270.03
2022-11-17T07:48:02.068Z,98268.48
2022-11-17T07:50:30.646Z,98266.11
2022-11-17T07:52:59.134Z,98263.32
2022-11-17T07:55:27.311Z,98259.34
2022-11-17T07:57:57.015Z,98259.33
2022-11-17T08:00:26.728Z,98260.53
2022-11-17T08:02:55.300Z,98264.65
2022-11-17T08:05:24.589Z,98268.78
2022-11-17T08:07:56.982Z,98265.66
2022-11-17T08:10:27.311Z,98263.25
2022-11-17T08:12:55.376Z,98262.56
2022-11-17T08:15:23.549Z,98260.48
2022-11-17T08:17:53.976Z,98262.39
2022-11-17T08:20:23.763Z,98261.86
2022-11-17T08:22:53.289Z,98264.95
2022-11-17T08:25:23.105Z,98265.29
2022-11-17T08:27:54.993Z,98262.16
2022-11-17T08:30:23.069Z,98263.19
2022-11-17T08:32:53.871Z,98260.27
2022-11-17T08:35:24.607Z,98263.90
2022-11-17T08:37:53.380Z,98266.27
2022-11-17T08:40:21.966Z,98269.20
2022-11-17T08:43:00.434Z,98269.20
2022-11-17T08:45:29.280Z,98276.40
2022-11-17T08:47:57.966Z,98278.64
2022-11-17T08:50:26.446Z,98285.88
2022-11-17T08:52:54.529Z,98287.95
2022-11-17T08:55:22.742Z,98289.16
2022-11-17T08:57:50.969Z,98290.02
2022-11-17T09:00:21.926Z,98286.04
2022-11-17T09:02:50.079Z,98291.21
2022-11-17T09:05:18.151Z,98292.09
2022-11-17T09:07:46.334Z,98292.59
2022-11-17T09:10:14.600Z,98288.45
2022-11-17T09:12:43.192Z,98286.55
2022-11-17T09:15:11.460Z,98282.77
2022-11-17T09:17:40.557Z,98282.80
2022-11-17T09:20:09.446Z,98282.82
2022-11-17T09:22:37.517Z,98286.77
2022-11-17T09:25:11.863Z,98291.77
2022-11-17T09:27:41.855Z,98292.63
2022-11-17T09:30:11.233Z,98293.13
2022-11-17T09:32:39.427Z,98298.61
2022-11-17T09:35:09.504Z,98299.82
2022-11-17T09:37:37.618Z,98301.74
2022-11-17T09:40:07.185Z,98299.70
2022-11-17T09:42:40.116Z,98296.23
2022-11-17T09:45:32.034Z,98301.05
2022-11-17T09:48:38.855Z,98302.10
2022-11-17T09:51:02.384Z,98300.55
2022-11-17T09:54:18.891Z,98297.12
2022-11-17T09:56:47.778Z,98298.70
2022-11-17T09:59:21.180Z,98297.01
2022-11-17T10:01:49.267Z,98294.91
2022-11-17T10:04:18.727Z,98292.85
2022-11-17T10:06:50.697Z,98292.52
2022-11-17T10:09:36.282Z,98296.46
2022-11-17T10:12:18.513Z,98295.95
2022-11-17T10:14:48.414Z,98291.95
2022-11-17T10:17:17.172Z,98290.41
2022-11-17T10:19:45.994Z,98286.26
2022-11-17T10:22:37.311Z,98280.27
2022-11-17T10:25:40.399Z,98277.84
2022-11-17T10:28:24.131Z,98282.65
2022-11-17T10:31:00.297Z,98279.73
2022-11-17T10:33:39.513Z,98282.30
2022-11-17T10:36:31.666Z,98280.73
2022-11-17T10:39:00.956Z,98276.95
2022-11-17T10:41:42.252Z,98277.77
2022-11-17T10:44:22.811Z,98277.27
2022-11-17T10:47:02.581Z,98284.88
2022-11-17T10:49:34.938Z,98288.84
2022-11-17T10:52:09.143Z,98293.30
2022-11-17T10:54:38.439Z,98288.48
2022-11-17T10:57:12.769Z,98287.11
2022-11-17T10:59:57.128Z,98284.19
2022-11-17T11:02:33.994Z,98284.34
2022-11-17T11:05:17.732Z,98286.71
2022-11-17T11:08:19.092Z,98287.95
2022-11-17T11:11:16.235Z,98282.14
2022-11-17T11:14:16.051Z,98280.92
2022-11-17T11:16:49.550Z,98279.38
2022-11-17T11:19:20.384Z,98283.68
2022-11-17T11:22:06.991Z,98285.41
2022-11-17T11:24:40.490Z,98287.48
2022-11-17T11:27:46.551Z,98287.45
2022-11-17T11:30:19.524Z,98285.59
2022-11-17T11:33:39.220Z,98288.06
2022-11-17T11:36:36.372Z,98289.98
2022-11-17T11:39:29.032Z,98296.55
2022-11-17T11:42:09.481Z,98295.85
2022-11-17T11:44:52.604Z,98296.86
2022-11-17T11:47:29.380Z,98298.90
2022-11-17T11:50:09.437Z,98299.23
2022-11-17T11:52:44.978Z,98303.21
2022-11-17T11:55:29.742Z,98302.37
2022-11-17T11:58:17.370Z,98300.77
2022-11-17T12:00:48.206Z,98304.72
2022-11-17T12:03:36.812Z,98305.21
2022-11-17T12:06:42.521Z,98303.66
2022-11-17T12:09:44.070Z,98302.44
2022-11-17T12:12:29.037Z,98305.83
2022-11-17T12:15:20.765Z,98305.31
2022-11-17T12:18:02.559Z,98302.96
2022-11-17T12:20:40.960Z,98301.39
2022-11-17T12:23:48.260Z,98297.95
2022-11-17T12:26:28.792Z,98302.62
2022-11-17T12:29:21.882Z,98303.98
2022-11-17T12:31:52.510Z,98298.81
2022-11-17T12:34:23.756Z,98300.86
2022-11-17T12:37:26.665Z,98302.59
2022-11-17T12:39:58.299Z,98297.98
2022-11-17T12:42:28.112Z,98297.63
2022-11-17T12:45:10.729Z,98296.60
2022-11-17T12:48:04.838Z,98295.06
2022-11-17T12:50:53.050Z,98297.12
2022-11-17T12:53:49.797Z,98297.80
2022-11-17T12:56:33.435Z,98295.39
2022-11-17T12:59:24.129Z,98297.46
2022-11-17T13:02:11.452Z,98300.78
2022-11-17T13:04:52.427Z,98297.66
2022-11-17T13:07:26.260Z,98292.63
2022-11-17T13:09:59.325Z,98290.73
2022-11-17T13:12:30.440Z,98288.67
2022-11-17T13:15:00.585Z,98293.14
2022-11-17T13:17:41.661Z,98298.44
2022-11-17T13:20:23.569Z,98301.20
2022-11-17T13:23:10.263Z,98301.73
2022-11-17T13:25:38.437Z,98301.90
2022-11-17T13:28:06.509Z,98307.56
2022-11-17T13:30:34.784Z,98314.95
2022-11-17T13:33:04.418Z,98321.48
2022-11-17T13:35:35.846Z,98325.42
2022-11-17T13:38:19.592Z,98322.33
2022-11-17T13:40:50.108Z,98321.98
2022-11-17T13:43:23.505Z,98325.09
2022-11-17T13:45:53.420Z,98322.55
2022-11-17T13:48:32.754Z,98325.48
2022-11-17T13:51:33.289Z,98332.90
2022-11-17T13:54:15.615Z,98332.58
2022-11-17T13:56:47.062Z,98326.90
2022-11-17T13:59:41.429Z,98333.08
2022-11-17T14:02:15.438Z,98329.09
2022-11-17T14:05:09.536Z,98331.14
2022-11-17T14:07:39.757Z,98330.10
2022-11-17T14:10:20.313Z,98332.68
2022-11-17T14:12:50.840Z,98332.64
2022-11-17T14:15:23.208Z,98339.67
2022-11-17T14:17:54.350Z,98344.33
2022-11-17T14:20:25.289Z,98342.92
2022-11-17T14:23:21.420Z,98341.56
2022-11-17T14:25:50.411Z,98333.96
2022-11-17T14:28:21.219Z,98335.16
2022-11-17T14:30:57.715Z,98341.19
2022-11-17T14:33:26.197Z,98340.72
2022-11-17T14:35:57.227Z,98338.29
2022-11-17T14:38:26.022Z,98334.14
2022-11-17T14:40:54.198Z,98334.15
2022-11-17T14:43:22.986Z,98333.11
2022-11-17T14:45:51.252Z,98335.19
2022-11-17T14:48:20.410Z,98338.29
2022-11-17T14:50:55.290Z,98343.06
2022-11-17T14:53:24.097Z,98348.55
2022-11-17T14:55:52.657Z,98345.31
2022-11-17T14:58:20.971Z,98338.93
2022-11-17T15:00:49.113Z,98338.73
2022-11-17T15:03:17.205Z,98334.44
2022-11-17T15:05:46.485Z,98338.36
2022-11-17T15:08:14.860Z,98334.20
2022-11-17T15:10:44.775Z,98329.18
2022-11-17T15:13:12.867Z,98320.04
2022-11-17T15:15:40.916Z,98319.18
2022-11-17T15:18:12.484Z,98315.10
2022-11-17T15:20:40.541Z,98308.57
2022-11-17T15:23:08.820Z,98300.08
2022-11-17T15:25:39.215Z,98303.70
2022-11-17T15:28:07.314Z,98299.21
2022-11-17T15:30:35.487Z,98299.04
2022-11-17T15:33:03.663Z,98301.27
2022-11-17T15:35:31.850Z,98302.13
2022-11-17T15:38:00.014Z,98303.98
2022-11-17T15:40:28.183Z,98307.40
2022-11-17T15:42:56.254Z,98308.16
2022-11-17T15:45:24.326Z,98306.44
2022-11-17T15:47:52.396Z,98304.55
2022-11-17T15:50:20.469Z,98308.68
2022-11-17T15:53:03.654Z,98306.10
2022-11-17T15:55:35.395Z,98302.30
2022-11-17T15:58:03.729Z,98304.86
2022-11-17T16:00:34.048Z,98305.38
2022-11-17T16:03:02.408Z,98300.38
2022-11-17T16:05:30.502Z,98299.52
2022-11-17T16:07:58.577Z,98300.05
2022-11-17T16:10:27.591Z,98299.69
2022-11-17T16:12:56.675Z,98299.52
2022-11-17T16:15:25.044Z,98296.60
2022-11-17T16:17:53.418Z,98295.06
2022-11-17T16:20:21.621Z,98292.83
2022-11-17T16:22:49.970Z,98291.98
2022-11-17T16:25:18.041Z,98294.36
2022-11-17T16:27:46.113Z,98293.67
2022-11-17T16:30:14.979Z,98286.63
2022-11-17T16:32:42.993Z,98284.95
2022-11-17T16:35:11.016Z,98281.34
2022-11-17T16:37:39.216Z,98285.12
2022-11-17T16:40:08.211Z,98282.88
2022-11-17T16:42:36.976Z,98281.14
2022-11-17T16:45:05.878Z,98282.69
2022-11-17T16:47:33.959Z,98286.09
2022-11-17T16:50:03.874Z,98287.81
2022-11-17T16:52:34.822Z,98291.92
2022-11-17T16:55:05.101Z,98294.84
2022-11-17T16:57:33.620Z,98294.02
2022-11-17T17:00:02.207Z,98295.56
2022-11-17T17:02:30.451Z,98292.95
2022-11-17T17:04:58.761Z,98294.48
2022-11-17T17:07:27.043Z,98294.66
2022-11-17T17:09:55.203Z,98291.91
2022-11-17T17:12:23.785Z,98288.64
2022-11-17T17:14:51.857Z,98292.05
2022-11-17T17:17:19.928Z,98295.65
2022-11-17T17:19:47.999Z,98292.54
2022-11-17T17:22:16.073Z,98294.65
2022-11-17T17:24:44.141Z,98295.86
2022-11-17T17:27:12.213Z,98295.66
2022-11-17T17:29:40.283Z,98295.66
2022-11-17T17:32:08.456Z,98296.17
2022-11-17T17:34:36.530Z,98299.95
2022-11-17T17:37:04.803Z,98304.77
2022-11-17T17:39:33.900Z,98308.39
2022-11-17T17:42:01.972Z,98311.14
2022-11-17T17:44:30.144Z,98311.96
2022-11-17T17:46:58.631Z,98315.06
2022-11-17T17:49:26.696Z,98313.38
2022-11-17T17:51:54.873Z,98314.41
2022-11-17T17:54:24.222Z,98313.01
2022-11-17T17:56:53.071Z,98316.64
2022-11-17T17:59:21.242Z,98316.80
2022-11-17T18:01:49.850Z,98313.20
2022-11-17T18:04:18.093Z,98311.61
2022-11-17T18:06:48.338Z,98308.50
2022-11-17T18:09:20.529Z,98307.46
2022-11-17T18:11:50.988Z,98308.13
2022-11-17T18:14:24.516Z,98311.77
2022-11-17T18:16:54.053Z,98307.11
2022-11-17T18:19:25.878Z,98308.98
2022-11-17T18:21:59.887Z,98308.80
2022-11-17T18:24:28.569Z,98311.22
2022-11-17T18:26:56.744Z,98308.27
2022-11-17T18:29:25.123Z,98305.51
2022-11-17T18:31:53.199Z,98304.64
2022-11-17T18:34:25.690Z,98304.30
2022-11-17T18:36:58.454Z,98303.28
2022-11-17T18:39:28.467Z,98305.73
2022-11-17T18:41:56.539Z,98307.09
2022-11-17T18:44:24.816Z,98304.15
2022-11-17T18:46:55.038Z,98302.96
2022-11-17T18:49:26.486Z,98301.92
2022-11-17T18:51:54.557Z,98300.90
2022-11-17T18:54:22.628Z,98294.02
2022-11-17T18:56:50.700Z,98296.06
2022-11-17T18:59:19.135Z,98295.85
2022-11-17T19:01:47.768Z,98295.98
2022-11-17T19:04:16.042Z,98293.41
2022-11-17T19:06:44.213Z,98296.90
2022-11-17T19:09:13.681Z,98296.53
2022-11-17T19:11:42.404Z,98292.72
2022-11-17T19:14:10.477Z,98290.13
2022-11-17T19:16:44.634Z,98289.61
2022-11-17T19:19:14.644Z,98285.65
2022-11-17T19:21:43.193Z,98288.75
2022-11-17T19:24:11.669Z,98282.54
2022-11-17T19:26:40.151Z,98277.35
2022-11-17T19:29:16.650Z,98274.05
2022-11-17T19:31:46.431Z,98268.71
2022-11-17T19:34:15.862Z,98265.15
2022-11-17T19:36:45.033Z,98265.34
2022-11-17T19:39:14.522Z,98262.23
2022-11-17T19:41:45.360Z,98261.00
2022-11-17T19:44:14.059Z,98257.52
2022-11-17T19:46:43.522Z,98255.45
2022-11-17T19:49:12.565Z,98258.17
2022-11-17T19:51:42.067Z,98257.84
2022-11-17T19:54:12.588Z,98261.26
2022-11-17T19:56:40.866Z,98262.96
2022-11-17T19:59:15.212Z,98265.51
2022-11-17T20:01:45.507Z,98260.20
2022-11-17T20:04:13.894Z,98262.11
2022-11-17T20:06:42.365Z,98262.13
2022-11-17T20:09:14.328Z,98268.83
2022-11-17T20:11:43.337Z,98268.66
2022-11-17T20:14:11.596Z,98266.62
2022-11-17T20:16:39.872Z,98254.91
2022-11-17T20:19:08.969Z,98251.99
2022-11-17T20:21:37.038Z,98244.42
2022-11-17T20:24:05.726Z,98237.36
2022-11-17T20:26:35.826Z,98235.59
2022-11-17T20:29:03.848Z,98235.64
2022-11-17T20:31:34.041Z,98238.05
2022-11-17T20:34:04.433Z,98237.20
2022-11-17T20:36:34.776Z,98232.37
2022-11-17T20:39:06.133Z,98225.44
2022-11-17T20:41:34.684Z,98221.41
2022-11-17T20:44:04.127Z,98219.84
2022-11-17T20:46:32.402Z,98219.81
2022-11-17T20:49:00.568Z,98219.95
2022-11-17T20:51:28.643Z,98219.98
2022-11-17T20:53:56.711Z,98222.63
2022-11-17T20:56:24.884Z,98219.73
2022-11-17T20:58:53.264Z,98218.70
2022-11-17T21:01:24.079Z,98216.29
2022-11-17T21:03:52.684Z,98214.93
2022-11-17T21:06:23.288Z,98220.62
2022-11-17T21:08:51.820Z,98219.72
2022-11-17T21:11:40.855Z,98221.09
2022-11-17T21:14:11.796Z,98218.33
2022-11-17T21:16:42.630Z,98219.00
2022-11-17T21:19:10.702Z,98222.98
2022-11-17T21:21:39.182Z,98226.27
2022-11-17T21:24:08.157Z,98225.17
2022-11-17T21:26:36.454Z,98225.45
2022-11-17T21:29:06.940Z,98224.41
2022-11-17T21:31:35.666Z,98224.58
2022-11-17T21:34:06.811Z,98219.76
2022-11-17T21:36:36.091Z,98222.36
2022-11-17T21:39:04.695Z,98218.90
2022-11-17T21:41:38.628Z,98220.41
2022-11-17T21:44:06.783Z,98218.16
2022-11-17T21:46:36.625Z,98219.40
2022-11-17T21:49:05.073Z,98218.41
2022-11-17T21:51:38.715Z,98212.73
2022-11-17T21:54:10.080Z,98214.14
2022-11-17T21:56:38.601Z,98211.40
2022-11-17T21:59:11.491Z,98208.61
2022-11-17T22:01:40.236Z,98206.88
2022-11-17T22:04:08.957Z,98205.30
2022-11-17T22:06:38.666Z,98203.70
2022-11-17T22:09:06.844Z,98203.82
2022-11-17T22:11:38.644Z,98199.85
2022-11-17T22:14:19.398Z,98196.42
2022-11-17T22:16:53.071Z,98195.39
2022-11-17T22:19:23.199Z,98195.77
2022-11-17T22:21:53.771Z,98189.42
2022-11-17T22:24:22.412Z,98188.08
2022-11-17T22:26:51.909Z,98186.74
2022-11-17T22:29:22.408Z,98181.56
2022-11-17T22:31:51.504Z,98177.79
2022-11-17T22:34:19.707Z,98174.20
2022-11-17T22:36:47.778Z,98173.06
2022-11-17T22:39:16.881Z,98165.17
2022-11-17T22:41:45.148Z,98155.88
2022-11-17T22:44:14.682Z,98152.27
2022-11-17T22:46:46.004Z,98145.25
2022-11-17T22:49:14.331Z,98149.20
2022-11-17T22:52:01.497Z,98143.18
2022-11-17T22:54:30.706Z,98140.05
2022-11-17T22:56:59.288Z,98139.00
2022-11-17T22:59:28.991Z,98136.76
2022-11-17T23:01:57.316Z,98137.10
2022-11-17T23:04:25.540Z,98137.68
2022-11-17T23:06:53.784Z,98134.09
2022-11-17T23:09:22.094Z,98132.19
2022-11-17T23:11:50.169Z,98132.88
2022-11-17T23:14:19.287Z,98140.45
2022-11-17T23:16:47.432Z,98151.60
2022-11-17T23:19:16.120Z,98156.91
2022-11-17T23:21:44.599Z,98152.60
2022-11-17T23:24:14.819Z,98153.77
2022-11-17T23:26:43.403Z,98148.77
2022-11-17T23:29:11.474Z,98144.67
2022-11-17T23:31:40.060Z,98146.27
2022-11-17T23:34:10.269Z,98142.64
2022-11-17T23:36:38.662Z,98147.56
2022-11-17T23:39:06.831Z,98144.30
2022-11-17T23:41:35.007Z,98144.98
2022-11-17T23:44:03.386Z,98142.61
2022-11-17T23:46:31.557Z,98146.06
2022-11-17T23:48:59.832Z,98145.89
2022-11-17T23:51:30.018Z,98145.20
2022-11-17T23:53:59.881Z,98140.55
2022-11-17T23:56:28.001Z,98137.34
2022-11-17T23:58:56.111Z,98137.00
